Time;durP1;ratioP1;P1;durP2;ratioP2;P2;SDS_P1;SDS_P2;PMS_P1;PMS_P2;Temp;Humidity;BMP_temperature;BMP_pressure;BME280_temperature;BME280_humidity;BME280_pressure;Samples;Min_cycle;Max_cycle;Signal;HPM_P1;HPM_P2
2021/12/15 00:00:17;;;;;;;49.80;21.47;;;7.60;99.90;;;;;;5078850;28;21026;-47
2021/12/15 00:02:44;;;;;;;50.07;22.03;;;7.50;99.90;;;;;;5057856;28;20487;-46
2021/12/15 00:05:13;;;;;;;39.20;19.90;;;7.40;99.90;;;;;;5078757;28;20485;-47
2021/12/15 00:07:40;;;;;;;38.53;18.97;;;7.50;99.90;;;;;;5068698;28;20481;-47
2021/12/15 00:10:08;;;;;;;44.73;19.20;;;7.60;99.90;;;;;;5062251;28;21012;-48
2021/12/15 00:12:36;;;;;;;44.30;17.73;;;7.50;99.90;;;;;;5066955;28;20609;-47
2021/12/15 00:15:04;;;;;;;45.00;18.53;;;7.40;99.90;;;;;;5063732;28;20987;-47
2021/12/15 00:17:30;;;;;;;35.00;17.83;;;7.50;99.90;;;;;;5059732;28;20486;-47
2021/12/15 00:19:57;;;;;;;41.40;19.10;;;7.60;99.90;;;;;;5078859;28;20469;-47
2021/12/15 00:22:24;;;;;;;39.23;17.60;;;7.60;99.90;;;;;;5060050;28;20530;-47
2021/12/15 00:24:51;;;;;;;33.47;17.10;;;7.70;99.90;;;;;;5082828;28;20993;-47
2021/12/15 00:27:18;;;;;;;41.23;18.57;;;7.80;99.90;;;;;;5061197;28;20486;-46
2021/12/15 00:29:46;;;;;;;48.97;20.53;;;7.80;99.90;;;;;;5063237;28;20479;-46
2021/12/15 00:32:13;;;;;;;43.50;19.10;;;7.70;99.90;;;;;;5065830;28;20539;-46
2021/12/15 00:34:41;;;;;;;41.00;18.97;;;7.80;99.90;;;;;;5047085;28;20973;-46
2021/12/15 00:37:08;;;;;;;39.50;19.93;;;7.80;99.90;;;;;;5057671;28;20495;-47
2021/12/15 00:39:36;;;;;;;41.67;20.40;;;7.90;99.90;;;;;;5071962;28;20479;-46
2021/12/15 00:42:03;;;;;;;42.63;19.10;;;7.90;99.90;;;;;;5079020;28;20557;-47
2021/12/15 00:44:30;;;;;;;35.87;18.80;;;7.90;99.90;;;;;;5068308;28;20481;-47
2021/12/15 00:46:58;;;;;;;37.93;18.83;;;8.00;99.90;;;;;;5077754;28;20962;-47
2021/12/15 00:49:25;;;;;;;38.77;20.57;;;8.00;99.90;;;;;;5076483;28;20756;-48
2021/12/15 00:51:52;;;;;;;33.33;18.00;;;8.00;99.90;;;;;;5077231;28;20472;-46
2021/12/15 00:54:19;;;;;;;37.43;17.83;;;8.10;99.90;;;;;;5079121;28;20472;-46
2021/12/15 00:56:46;;;;;;;38.03;17.80;;;8.10;99.90;;;;;;5078341;28;20871;-46
2021/12/15 00:59:13;;;;;;;35.93;16.50;;;8.10;99.90;;;;;;5081764;28;20485;-47
2021/12/15 01:01:40;;;;;;;41.37;17.00;;;8.10;99.90;;;;;;5087401;27;20511;-47
2021/12/15 01:04:11;;;;;;;39.33;17.60;;;8.00;99.90;;;;;;5075877;28;20484;-46
2021/12/15 01:06:39;;;;;;;42.30;18.40;;;7.80;99.90;;;;;;5082366;28;20500;-47
2021/12/15 01:09:11;;;;;;;50.33;18.17;;;7.50;99.90;;;;;;5080970;28;20580;-47
2021/12/15 01:11:50;;;;;;;44.30;18.30;;;7.40;99.90;;;;;;5080196;28;20477;-47
2021/12/15 01:19:46;;;;;;;33.57;16.33;;;7.40;99.90;;;;;;5079548;28;21028;-47
2021/12/15 01:20:13;;;;;;;32.97;16.77;;;7.60;99.90;;;;;;5066823;28;21033;-47
2021/12/15 01:22:42;;;;;;;32.23;16.77;;;7.70;99.90;;;;;;5079018;28;20528;-47
2021/12/15 01:25:13;;;;;;;35.87;17.00;;;7.70;99.90;;;;;;5088277;28;20550;-47
2021/12/15 01:27:40;;;;;;;35.37;18.67;;;7.70;99.90;;;;;;5081334;28;20477;-47
2021/12/15 01:30:10;;;;;;;37.00;20.23;;;7.80;99.90;;;;;;5071246;28;20496;-46
2021/12/15 01:32:37;;;;;;;40.47;20.37;;;7.80;99.90;;;;;;5101510;27;20473;-47
2021/12/15 01:35:04;;;;;;;44.40;20.10;;;7.80;99.90;;;;;;5079030;28;20512;-47
2021/12/15 01:37:32;;;;;;;45.00;21.23;;;7.90;99.90;;;;;;5079064;28;20542;-47
2021/12/15 01:40:00;;;;;;;41.57;20.20;;;7.90;99.90;;;;;;5075827;28;20479;-47
2021/12/15 01:42:30;;;;;;;50.83;19.53;;;7.90;99.90;;;;;;5078712;28;20485;-47
2021/12/15 01:47:42;;;;;;;43.10;20.33;;;8.00;99.90;;;;;;5075279;28;20603;-47
2021/12/15 01:50:11;;;;;;;41.77;20.90;;;8.00;99.90;;;;;;5067107;28;20883;-47
2021/12/15 01:52:41;;;;;;;41.00;21.20;;;8.00;99.90;;;;;;5079923;28;20512;-47
2021/12/15 01:55:11;;;;;;;47.53;21.77;;;8.10;99.90;;;;;;5081437;28;20477;-47
2021/12/15 01:57:38;;;;;;;41.50;21.23;;;8.10;99.90;;;;;;5079239;28;20554;-47
2021/12/15 02:00:09;;;;;;;48.37;22.83;;;8.00;99.90;;;;;;5071703;28;20491;-47
2021/12/15 02:02:36;;;;;;;45.97;22.27;;;8.00;99.90;;;;;;5083513;28;20986;-47
2021/12/15 02:05:04;;;;;;;39.40;19.60;;;8.10;99.90;;;;;;5081478;28;20891;-47
2021/12/15 02:07:31;;;;;;;36.53;20.13;;;8.10;99.90;;;;;;5080973;28;20493;-47
2021/12/15 02:10:05;;;;;;;49.50;21.33;;;8.10;99.90;;;;;;5082550;28;20604;-47
2021/12/15 02:12:37;;;;;;;39.57;19.40;;;8.10;99.90;;;;;;5086251;28;20480;-47
2021/12/15 02:15:09;;;;;;;42.23;19.77;;;8.00;99.90;;;;;;5079293;28;20486;-47
2021/12/15 02:17:36;;;;;;;57.70;22.40;;;8.10;99.90;;;;;;5081111;28;20475;-46
2021/12/15 02:20:05;;;;;;;47.37;20.13;;;8.00;99.90;;;;;;5063748;28;20537;-47
2021/12/15 02:22:33;;;;;;;44.27;20.07;;;8.00;99.90;;;;;;5096117;28;20936;-47
2021/12/15 02:25:02;;;;;;;46.20;22.37;;;8.00;99.90;;;;;;5077860;28;20492;-47
2021/12/15 02:27:33;;;;;;;41.57;19.90;;;8.00;99.90;;;;;;5083005;28;20484;-47
2021/12/15 02:30:16;;;;;;;47.37;18.97;;;8.00;99.90;;;;;;5065615;28;20507;-47
2021/12/15 02:32:55;;;;;;;36.00;18.70;;;8.00;99.90;;;;;;5086046;28;20484;-47
2021/12/15 02:38:08;;;;;;;48.80;19.30;;;8.00;99.90;;;;;;5068987;28;20547;-47
2021/12/15 02:40:34;;;;;;;36.50;18.07;;;8.00;99.90;;;;;;5078258;28;20913;-47
2021/12/15 02:43:01;;;;;;;29.30;17.03;;;8.00;99.90;;;;;;5085569;28;20544;-47
2021/12/15 02:45:28;;;;;;;38.30;20.47;;;8.00;99.90;;;;;;5081416;28;20473;-47
2021/12/15 02:47:55;;;;;;;50.90;20.83;;;8.00;99.90;;;;;;5084324;28;20487;-47
2021/12/15 02:50:27;;;;;;;46.63;20.50;;;8.00;99.90;;;;;;5078311;28;20538;-47
2021/12/15 02:52:55;;;;;;;40.20;20.07;;;7.90;99.90;;;;;;5080980;28;20485;-48
2021/12/15 02:55:23;;;;;;;43.87;19.63;;;7.90;99.90;;;;;;5075003;28;20488;-47
2021/12/15 02:57:52;;;;;;;72.83;21.90;;;7.90;99.90;;;;;;5076354;28;20543;-47
2021/12/15 03:00:22;;;;;;;45.77;21.00;;;7.90;99.90;;;;;;5066057;28;20490;-47
2021/12/15 03:03:19;;;;;;;38.13;18.60;;;7.80;99.90;;;;;;5089620;28;20490;-47
2021/12/15 03:05:50;;;;;;;39.87;17.83;;;7.70;99.90;;;;;;5078076;28;21054;-47
2021/12/15 03:08:21;;;;;;;29.97;16.17;;;7.70;99.90;;;;;;5067361;28;20579;-47
2021/12/15 03:16:21;;;;;;;41.20;17.43;;;7.60;99.90;;;;;;5067689;28;20517;-47
2021/12/15 03:18:49;;;;;;;38.87;19.07;;;7.50;99.90;;;;;;5078982;28;20498;-47
2021/12/15 03:21:21;;;;;;;51.87;23.23;;;7.30;99.90;;;;;;5079687;28;20541;-46
2021/12/15 03:23:52;;;;;;;48.17;20.60;;;7.20;99.90;;;;;;5077146;28;20469;-48
2021/12/15 03:26:27;;;;;;;41.30;21.10;;;7.20;99.90;;;;;;5081220;28;21292;-47
2021/12/15 03:34:44;;;;;;;38.07;16.77;;;7.30;99.90;;;;;;5080635;28;20505;-47
2021/12/15 03:37:23;;;;;;;38.77;19.40;;;7.30;99.90;;;;;;5072377;28;20570;-46
2021/12/15 03:39:53;;;;;;;39.07;17.63;;;7.30;99.90;;;;;;5068866;28;20554;-47
2021/12/15 03:42:25;;;;;;;42.77;18.90;;;7.30;99.90;;;;;;5051300;28;20480;-46
2021/12/15 03:44:52;;;;;;;51.00;19.27;;;7.30;99.90;;;;;;5071649;28;20477;-54
2021/12/15 03:47:23;;;;;;;63.77;23.37;;;7.30;99.90;;;;;;5078359;28;20506;-47
2021/12/15 03:49:51;;;;;;;126.30;22.73;;;7.30;99.90;;;;;;5068768;28;20484;-47
2021/12/15 03:52:18;;;;;;;43.30;15.87;;;7.20;99.90;;;;;;5078326;28;20544;-47
2021/12/15 03:54:45;;;;;;;29.83;16.57;;;7.20;99.90;;;;;;5073263;28;21342;-46
2021/12/15 03:57:12;;;;;;;34.77;16.80;;;7.10;99.90;;;;;;5088724;28;20490;-46
2021/12/15 03:59:43;;;;;;;34.47;16.60;;;7.10;99.90;;;;;;5067262;28;20498;-47
2021/12/15 04:02:12;;;;;;;35.37;16.40;;;7.20;99.90;;;;;;5089303;28;20485;-47
2021/12/15 04:04:40;;;;;;;53.33;19.13;;;7.10;99.90;;;;;;5079330;28;20494;-47
2021/12/15 04:07:09;;;;;;;62.40;20.80;;;7.10;99.90;;;;;;5061879;28;20543;-47
2021/12/15 04:09:36;;;;;;;66.47;22.70;;;7.00;99.90;;;;;;5079946;28;20550;-47
2021/12/15 04:12:04;;;;;;;44.83;19.90;;;7.10;99.90;;;;;;5076353;28;20480;-50
2021/12/15 04:14:41;;;;;;;99.80;23.13;;;7.10;99.90;;;;;;5084163;28;20468;-47
2021/12/15 04:17:26;;;;;;;36.20;18.40;;;7.00;99.90;;;;;;5065148;28;21029;-47
2021/12/15 04:19:55;;;;;;;59.50;20.03;;;7.00;99.90;;;;;;5072906;28;20498;-47
2021/12/15 04:22:22;;;;;;;162.13;31.10;;;7.10;99.90;;;;;;5085412;28;20503;-47
2021/12/15 04:24:49;;;;;;;368.07;40.00;;;7.10;99.90;;;;;;5079345;28;20544;-47
2021/12/15 04:27:16;;;;;;;71.77;23.50;;;7.00;99.90;;;;;;5074895;28;20952;-47
2021/12/15 04:29:44;;;;;;;254.47;36.07;;;7.00;99.90;;;;;;5064963;28;20485;-47
2021/12/15 04:32:16;;;;;;;120.23;28.03;;;7.10;99.90;;;;;;5094700;28;20482;-47
2021/12/15 04:34:43;;;;;;;96.07;29.10;;;7.10;99.90;;;;;;5081136;28;20480;-49
2021/12/15 04:37:10;;;;;;;114.23;25.67;;;7.10;99.90;;;;;;5087067;28;20489;-46
2021/12/15 04:39:37;;;;;;;67.93;22.17;;;7.10;99.90;;;;;;5083569;28;21206;-47
2021/12/15 04:42:05;;;;;;;62.30;20.27;;;7.10;99.90;;;;;;5077050;28;20554;-46
2021/12/15 04:44:33;;;;;;;168.80;27.63;;;7.10;99.90;;;;;;5077986;28;20480;-47
2021/12/15 04:47:05;;;;;;;102.83;22.27;;;7.20;99.90;;;;;;5082617;28;20487;-47
2021/12/15 04:49:36;;;;;;;68.03;19.40;;;7.20;99.90;;;;;;5076117;28;20480;-46
2021/12/15 04:52:04;;;;;;;50.10;18.00;;;7.10;99.90;;;;;;5082938;28;20482;-47
2021/12/15 04:54:31;;;;;;;47.47;19.00;;;7.10;99.90;;;;;;5081553;28;20548;-47
2021/12/15 04:56:59;;;;;;;76.73;19.37;;;7.10;99.90;;;;;;5083629;28;20480;-46
2021/12/15 04:59:26;;;;;;;49.80;18.00;;;7.10;99.90;;;;;;5074826;28;21040;-47
2021/12/15 05:01:53;;;;;;;47.83;19.10;;;7.10;99.90;;;;;;5072095;28;20580;-48
2021/12/15 05:04:19;;;;;;;35.10;15.50;;;7.10;99.90;;;;;;5080391;28;20501;-47
2021/12/15 05:06:47;;;;;;;32.20;15.57;;;7.10;99.90;;;;;;5075642;28;20484;-47
2021/12/15 05:09:14;;;;;;;32.33;15.00;;;7.00;99.90;;;;;;5079012;28;20496;-46
2021/12/15 05:11:42;;;;;;;29.00;15.07;;;7.00;99.90;;;;;;5080029;28;20487;-46
2021/12/15 05:14:08;;;;;;;32.30;15.70;;;7.00;99.90;;;;;;5081436;28;20938;-47
2021/12/15 05:16:35;;;;;;;36.93;16.30;;;7.00;99.90;;;;;;5078873;28;20486;-47
2021/12/15 05:19:02;;;;;;;32.47;15.73;;;7.10;99.90;;;;;;5076569;28;20919;-47
2021/12/15 05:21:30;;;;;;;32.43;14.90;;;7.10;99.90;;;;;;5078441;28;21029;-47
2021/12/15 05:24:08;;;;;;;31.20;16.47;;;7.20;99.90;;;;;;5095017;27;20534;-47
2021/12/15 05:26:34;;;;;;;25.40;13.90;;;7.20;99.90;;;;;;5081779;28;20489;-47
2021/12/15 05:29:01;;;;;;;24.30;15.30;;;7.20;99.90;;;;;;5075623;28;20787;-47
2021/12/15 05:31:28;;;;;;;25.20;14.33;;;7.30;99.90;;;;;;5073992;28;20481;-46
2021/12/15 05:33:55;;;;;;;25.77;15.13;;;7.30;99.90;;;;;;5080006;28;20485;-47
2021/12/15 05:36:22;;;;;;;25.07;16.00;;;7.30;99.90;;;;;;5080307;28;20546;-47
2021/12/15 05:38:49;;;;;;;26.80;15.83;;;7.40;99.90;;;;;;5081928;28;20491;-46
2021/12/15 05:41:17;;;;;;;32.80;16.30;;;7.40;99.90;;;;;;5062512;28;20536;-46
2021/12/15 05:43:43;;;;;;;35.23;15.73;;;7.40;99.90;;;;;;5093915;28;21054;-47
2021/12/15 05:46:10;;;;;;;25.10;14.73;;;7.40;99.90;;;;;;5082755;28;20488;-47
2021/12/15 05:48:37;;;;;;;33.50;14.97;;;7.40;99.90;;;;;;5081270;28;20822;-47
2021/12/15 05:51:04;;;;;;;28.10;15.20;;;7.40;99.90;;;;;;5078483;28;20499;-46
2021/12/15 05:53:30;;;;;;;31.40;16.40;;;7.40;99.90;;;;;;5085746;28;20507;-47
2021/12/15 05:55:57;;;;;;;27.63;14.50;;;7.40;99.90;;;;;;5084630;28;20480;-47
2021/12/15 05:58:25;;;;;;;24.10;14.20;;;7.40;99.90;;;;;;5077448;28;21150;-46
2021/12/15 06:00:52;;;;;;;30.30;16.83;;;7.40;99.90;;;;;;5077486;28;20527;-47
2021/12/15 06:06:41;;;;;;;26.87;15.50;;;7.40;99.90;;;;;;5034098;27;20513;-46
2021/12/15 06:09:10;;;;;;;26.60;14.63;;;7.30;99.90;;;;;;5077185;28;20481;-47
2021/12/15 06:11:38;;;;;;;30.60;16.60;;;7.20;99.90;;;;;;5093191;28;20487;-47
2021/12/15 06:14:06;;;;;;;30.47;17.17;;;7.20;99.90;;;;;;5082710;28;20485;-47
2021/12/15 06:16:34;;;;;;;34.00;17.23;;;7.30;99.90;;;;;;5079684;28;21322;-46
2021/12/15 06:19:02;;;;;;;34.93;17.53;;;7.30;99.90;;;;;;5084591;28;20827;-47
2021/12/15 06:21:31;;;;;;;31.00;17.57;;;7.30;99.90;;;;;;5081287;28;20488;-46
2021/12/15 06:23:58;;;;;;;31.20;17.37;;;7.30;99.90;;;;;;5083408;28;20472;-46
2021/12/15 06:26:25;;;;;;;30.87;16.30;;;7.30;99.90;;;;;;5086509;28;20479;-47
2021/12/15 06:28:51;;;;;;;27.93;16.67;;;7.30;99.90;;;;;;5081515;28;20480;-49
2021/12/15 06:31:19;;;;;;;23.03;14.03;;;7.40;99.90;;;;;;5078070;28;20484;-46
2021/12/15 06:33:47;;;;;;;24.23;13.47;;;7.40;99.90;;;;;;5081810;28;20486;-46
2021/12/15 06:36:20;;;;;;;27.00;15.03;;;7.30;99.90;;;;;;5082489;28;20472;-47
2021/12/15 06:38:48;;;;;;;23.50;14.20;;;7.30;99.90;;;;;;5080750;28;21159;-46
2021/12/15 06:41:16;;;;;;;28.63;17.10;;;7.30;99.90;;;;;;5078710;28;20540;-47
2021/12/15 06:43:46;;;;;;;32.40;19.33;;;7.30;99.90;;;;;;5082953;28;20472;-47
2021/12/15 06:46:36;;;;;;;31.83;16.60;;;7.30;99.90;;;;;;5084361;28;20533;-47
2021/12/15 07:00:13;;;;;;;29.70;15.60;;;7.30;99.90;;;;;;5050098;28;20584;-47
2021/12/15 07:02:41;;;;;;;24.43;14.77;;;7.30;99.90;;;;;;5072755;28;20472;-47
2021/12/15 07:05:11;;;;;;;27.20;15.83;;;7.20;99.90;;;;;;5091580;28;20477;-47
2021/12/15 07:07:39;;;;;;;27.13;15.13;;;7.20;99.90;;;;;;5079683;28;20561;-47
2021/12/15 07:10:08;;;;;;;25.20;15.03;;;7.20;99.90;;;;;;5079078;28;20479;-46
2021/12/15 07:12:36;;;;;;;27.50;16.10;;;7.20;99.90;;;;;;5042063;28;20503;-47
2021/12/15 07:15:04;;;;;;;28.60;18.13;;;7.20;99.90;;;;;;5069844;28;20530;-47
2021/12/15 07:17:31;;;;;;;31.37;19.23;;;7.20;99.90;;;;;;5073756;28;20480;-47
2021/12/15 07:20:07;;;;;;;27.30;16.43;;;7.20;99.90;;;;;;5069654;28;20485;-47
2021/12/15 07:22:43;;;;;;;31.93;15.97;;;7.20;99.90;;;;;;5079240;28;20491;-46
2021/12/15 07:25:12;;;;;;;31.23;17.67;;;7.30;99.90;;;;;;5050468;28;20495;-47
2021/12/15 07:27:39;;;;;;;30.60;16.87;;;7.30;99.90;;;;;;5077474;28;20534;-46
2021/12/15 07:30:08;;;;;;;32.37;17.30;;;7.20;99.90;;;;;;5075419;28;20477;-46
2021/12/15 07:32:35;;;;;;;31.30;18.53;;;7.20;99.90;;;;;;5077367;28;20482;-47
2021/12/15 07:35:02;;;;;;;31.37;20.10;;;7.30;99.90;;;;;;5075319;28;20480;-47
2021/12/15 07:37:29;;;;;;;37.77;21.20;;;7.30;99.90;;;;;;5074077;28;20489;-47
2021/12/15 07:39:59;;;;;;;35.13;17.87;;;7.30;99.90;;;;;;5067928;28;20484;-47
2021/12/15 07:42:34;;;;;;;30.67;17.00;;;7.30;99.90;;;;;;5075712;28;21016;-47
2021/12/15 07:45:01;;;;;;;29.00;16.97;;;7.30;99.90;;;;;;5079838;28;20614;-47
2021/12/15 07:47:29;;;;;;;26.80;16.83;;;7.20;99.90;;;;;;5067559;28;20848;-47
2021/12/15 07:49:59;;;;;;;28.40;16.80;;;7.20;99.90;;;;;;5058716;28;20856;-47
2021/12/15 07:52:26;;;;;;;31.87;16.80;;;7.30;99.90;;;;;;5064697;27;20644;-47
2021/12/15 07:54:53;;;;;;;27.50;18.10;;;7.30;99.90;;;;;;5066685;28;20484;-48
2021/12/15 07:57:22;;;;;;;31.57;20.63;;;7.30;99.90;;;;;;5059581;28;20476;-48
2021/12/15 07:59:50;;;;;;;27.50;15.90;;;7.30;99.90;;;;;;5069705;27;20555;-47
2021/12/15 08:02:17;;;;;;;24.70;16.47;;;7.40;99.90;;;;;;5059340;28;20479;-47
2021/12/15 08:04:44;;;;;;;27.77;18.27;;;7.30;99.90;;;;;;5068176;28;20488;-47
2021/12/15 08:07:11;;;;;;;24.50;16.07;;;7.30;99.90;;;;;;5068902;28;20470;-47
2021/12/15 08:09:38;;;;;;;29.57;17.57;;;7.30;99.90;;;;;;5065850;28;20546;-47
2021/12/15 08:12:05;;;;;;;25.17;17.80;;;7.30;99.90;;;;;;5056348;28;20488;-47
2021/12/15 08:14:33;;;;;;;29.70;18.20;;;7.30;99.90;;;;;;5064653;28;20482;-47
2021/12/15 08:17:00;;;;;;;24.60;16.83;;;7.40;99.90;;;;;;5070223;28;20884;-47
2021/12/15 08:19:27;;;;;;;31.30;16.83;;;7.30;99.90;;;;;;5066409;28;20525;-47
2021/12/15 08:21:54;;;;;;;24.40;16.73;;;7.30;99.90;;;;;;5067054;28;20993;-47
2021/12/15 08:24:21;;;;;;;27.10;17.43;;;7.40;99.90;;;;;;5068028;28;20483;-47
2021/12/15 08:26:47;;;;;;;29.40;16.77;;;7.40;99.90;;;;;;5067973;28;20475;-47
2021/12/15 08:29:14;;;;;;;28.27;14.70;;;7.40;99.90;;;;;;5067267;28;20505;-47
2021/12/15 08:31:43;;;;;;;26.07;16.70;;;7.40;99.90;;;;;;5066812;28;20481;-47
2021/12/15 08:34:10;;;;;;;27.20;16.17;;;7.40;99.90;;;;;;5060070;28;20477;-48
2021/12/15 08:36:38;;;;;;;22.87;15.40;;;7.40;99.90;;;;;;5083562;28;20882;-47
2021/12/15 08:39:05;;;;;;;26.80;18.07;;;7.50;99.90;;;;;;5035739;28;20998;-48
2021/12/15 08:41:32;;;;;;;24.80;15.87;;;7.50;99.90;;;;;;5064336;28;21055;-47
2021/12/15 08:44:00;;;;;;;23.97;16.00;;;7.60;99.90;;;;;;5074520;28;20491;-48
2021/12/15 08:46:30;;;;;;;34.10;19.90;;;7.70;99.90;;;;;;5064244;28;21120;-47
2021/12/15 08:48:59;;;;;;;45.43;27.30;;;7.70;99.90;;;;;;5068136;28;20604;-48
2021/12/15 08:51:27;;;;;;;82.10;54.80;;;7.80;99.90;;;;;;5054778;28;20483;-48
2021/12/15 08:53:54;;;;;;;40.33;28.73;;;7.90;99.90;;;;;;5079880;28;20514;-48
2021/12/15 08:56:21;;;;;;;36.80;22.00;;;7.90;99.90;;;;;;5068492;28;20488;-48
2021/12/15 08:58:48;;;;;;;31.23;19.07;;;8.00;99.90;;;;;;5064408;28;20947;-47
2021/12/15 09:01:15;;;;;;;25.10;17.20;;;8.00;99.90;;;;;;5067177;28;20937;-47
2021/12/15 09:03:43;;;;;;;27.23;15.67;;;8.00;99.90;;;;;;5047716;28;20499;-47
2021/12/15 09:06:14;;;;;;;27.63;17.33;;;8.00;99.90;;;;;;5058562;28;20845;-47
2021/12/15 09:08:42;;;;;;;23.00;16.80;;;8.00;99.90;;;;;;5058990;28;20494;-47
2021/12/15 09:11:11;;;;;;;24.37;16.07;;;8.10;99.90;;;;;;5058779;28;20822;-47
2021/12/15 09:13:39;;;;;;;24.50;16.00;;;8.10;99.90;;;;;;5058614;28;20479;-47
2021/12/15 09:16:08;;;;;;;35.10;19.60;;;8.20;99.90;;;;;;5080514;28;20479;-47
2021/12/15 09:18:35;;;;;;;27.20;20.00;;;8.20;99.90;;;;;;5067159;27;20893;-47
2021/12/15 09:21:03;;;;;;;29.53;19.10;;;8.30;99.90;;;;;;5055487;28;20487;-47
2021/12/15 09:23:32;;;;;;;28.60;17.87;;;8.30;99.90;;;;;;5062056;28;20470;-47
2021/12/15 09:25:59;;;;;;;26.17;19.07;;;8.40;99.90;;;;;;5070589;28;20867;-47
2021/12/15 09:28:26;;;;;;;36.37;21.70;;;8.40;99.90;;;;;;5070384;28;20472;-46
2021/12/15 09:30:54;;;;;;;43.60;27.27;;;8.40;99.90;;;;;;5058990;28;20534;-47
2021/12/15 09:33:24;;;;;;;33.93;22.10;;;8.50;99.90;;;;;;5067831;28;20526;-47
2021/12/15 09:35:52;;;;;;;25.87;17.13;;;8.50;99.90;;;;;;5065905;28;20492;-46
2021/12/15 09:38:20;;;;;;;25.70;19.40;;;8.50;99.90;;;;;;5060251;28;20547;-47
2021/12/15 09:40:49;;;;;;;30.00;19.07;;;8.60;99.90;;;;;;5055642;28;20491;-46
2021/12/15 09:43:16;;;;;;;26.97;18.83;;;8.60;99.90;;;;;;5071311;28;20531;-46
2021/12/15 09:45:49;;;;;;;22.60;15.10;;;8.60;99.90;;;;;;5052861;28;20517;-47
2021/12/15 09:57:04;;;;;;;26.60;15.60;;;8.50;99.90;;;;;;5062536;28;20480;-47
2021/12/15 10:02:32;;;;;;;26.60;18.47;;;8.50;99.90;;;;;;5067070;28;20595;-46
2021/12/15 10:05:11;;;;;;;25.50;16.00;;;8.40;99.90;;;;;;5069738;28;20483;-47
2021/12/15 10:10:44;;;;;;;22.83;13.50;;;8.40;99.90;;;;;;5061370;28;20496;-47
2021/12/15 10:18:53;;;;;;;22.23;14.20;;;8.40;99.90;;;;;;5058074;28;20487;-46
2021/12/15 10:21:23;;;;;;;25.03;14.93;;;8.40;99.90;;;;;;5050770;28;21127;-48
2021/12/15 10:23:51;;;;;;;20.40;12.60;;;8.40;99.90;;;;;;5069771;27;20471;-46
2021/12/15 10:26:18;;;;;;;19.40;12.90;;;8.40;99.90;;;;;;5062434;28;20574;-46
2021/12/15 10:28:52;;;;;;;19.00;13.60;;;8.40;99.90;;;;;;5071230;28;20465;-46
2021/12/15 10:31:21;;;;;;;19.37;12.27;;;8.40;99.90;;;;;;5068342;28;20472;-46
2021/12/15 10:33:50;;;;;;;16.13;11.87;;;8.40;99.90;;;;;;5065299;28;21432;-46
2021/12/15 10:36:20;;;;;;;15.80;10.67;;;8.40;99.90;;;;;;5063432;28;20473;-46
2021/12/15 10:38:48;;;;;;;14.67;10.90;;;8.50;99.90;;;;;;5077749;28;20849;-46
2021/12/15 10:41:18;;;;;;;16.97;11.80;;;8.50;99.90;;;;;;5061266;28;22513;-46
2021/12/15 10:43:48;;;;;;;13.17;10.20;;;8.50;99.90;;;;;;5064155;28;20993;-46
2021/12/15 10:46:17;;;;;;;19.20;12.60;;;8.50;99.90;;;;;;5070982;28;20476;-47
2021/12/15 10:48:48;;;;;;;10.80;8.33;;;8.60;99.90;;;;;;5073714;28;20920;-47
2021/12/15 10:51:31;;;;;;;10.80;7.70;;;8.60;99.90;;;;;;5061450;28;21080;-47
2021/12/15 10:54:03;;;;;;;12.07;7.40;;;8.60;99.90;;;;;;5065095;28;20470;-47
2021/12/15 10:56:33;;;;;;;12.37;8.47;;;8.60;99.90;;;;;;5061996;28;20471;-46
2021/12/15 10:59:04;;;;;;;14.33;9.10;;;8.70;99.90;;;;;;5068948;28;20486;-47
2021/12/15 11:01:57;;;;;;;9.97;8.03;;;8.70;99.90;;;;;;5063059;28;20912;-47
2021/12/15 11:04:34;;;;;;;14.83;9.77;;;8.80;99.90;;;;;;5070246;28;21474;-47
2021/12/15 11:07:21;;;;;;;11.87;9.20;;;8.90;99.90;;;;;;5047759;28;20462;-47
2021/12/15 11:09:51;;;;;;;14.07;10.10;;;8.90;99.90;;;;;;5067161;28;21071;-47
2021/12/15 11:12:22;;;;;;;14.50;10.90;;;9.00;99.90;;;;;;5067988;28;20485;-47
2021/12/15 11:14:53;;;;;;;15.77;10.87;;;9.00;99.90;;;;;;5075330;27;20478;-47
2021/12/15 11:17:23;;;;;;;17.50;11.10;;;9.10;99.90;;;;;;5069702;28;20536;-47
2021/12/15 11:19:58;;;;;;;14.87;11.00;;;9.10;99.90;;;;;;5066388;28;20475;-49
2021/12/15 11:22:39;;;;;;;14.10;9.80;;;9.20;99.90;;;;;;5066988;28;21002;-47
2021/12/15 11:25:11;;;;;;;14.53;9.57;;;9.20;99.90;;;;;;5038789;28;20479;-47
2021/12/15 11:27:39;;;;;;;13.90;9.20;;;9.20;99.90;;;;;;5039290;28;20479;-47
2021/12/15 11:30:11;;;;;;;11.00;8.50;;;9.20;99.90;;;;;;5055084;28;21000;-47
2021/12/15 11:32:42;;;;;;;30.93;21.70;;;9.10;99.90;;;;;;5063947;28;20493;-46
2021/12/15 11:35:12;;;;;;;11.70;8.67;;;9.10;99.90;;;;;;5038872;28;20490;-47
2021/12/15 11:37:48;;;;;;;11.80;9.10;;;9.10;99.90;;;;;;5059102;28;20510;-47
2021/12/15 11:40:16;;;;;;;11.07;8.20;;;9.10;99.90;;;;;;5050055;28;21010;-47
2021/12/15 11:42:44;;;;;;;13.03;6.70;;;9.10;99.90;;;;;;5066670;28;20523;-47
2021/12/15 11:45:13;;;;;;;7.33;6.43;;;9.00;99.90;;;;;;5062110;28;21174;-47
2021/12/15 11:47:41;;;;;;;9.03;7.67;;;9.00;99.90;;;;;;5061754;28;20476;-47
2021/12/15 11:50:12;;;;;;;6.03;5.43;;;8.90;99.90;;;;;;5048643;27;20488;-47
2021/12/15 11:52:42;;;;;;;6.73;5.27;;;9.00;99.90;;;;;;5057791;28;21387;-47
2021/12/15 11:55:24;;;;;;;9.30;7.40;;;8.90;99.90;;;;;;5059043;28;20483;-47
2021/12/15 11:57:51;;;;;;;7.27;6.50;;;8.90;99.90;;;;;;5041366;28;20481;-46
2021/12/15 12:00:22;;;;;;;7.90;6.23;;;8.90;99.90;;;;;;5023120;28;20481;-47
2021/12/15 12:02:52;;;;;;;8.20;6.60;;;9.00;99.90;;;;;;5061061;28;20493;-47
2021/12/15 12:05:24;;;;;;;5.70;4.93;;;9.00;99.90;;;;;;5055615;28;20529;-47
2021/12/15 12:07:54;;;;;;;5.90;5.30;;;9.00;99.90;;;;;;5049758;28;20580;-47
2021/12/15 12:10:26;;;;;;;7.90;6.20;;;9.10;99.90;;;;;;5050935;28;21097;-47
2021/12/15 12:13:03;;;;;;;7.77;7.00;;;9.10;99.90;;;;;;5060358;28;20488;-47
2021/12/15 12:15:32;;;;;;;4.23;3.63;;;9.10;99.90;;;;;;5053123;28;21058;-48
2021/12/15 12:18:04;;;;;;;5.70;5.20;;;9.00;99.90;;;;;;5068461;28;20463;-47
2021/12/15 12:20:32;;;;;;;7.13;6.00;;;9.10;99.90;;;;;;5054361;28;20473;-47
2021/12/15 12:23:02;;;;;;;5.03;4.63;;;9.10;99.90;;;;;;5060709;28;20483;-47
2021/12/15 12:25:33;;;;;;;4.30;3.90;;;9.10;99.90;;;;;;5061050;28;20536;-46
2021/12/15 12:28:00;;;;;;;5.17;4.67;;;9.00;99.90;;;;;;5064030;28;20475;-47
2021/12/15 12:30:33;;;;;;;3.90;3.60;;;9.00;99.90;;;;;;5053031;28;20488;-47
2021/12/15 12:33:01;;;;;;;5.80;4.87;;;9.00;99.90;;;;;;5042885;28;20487;-47
2021/12/15 12:35:30;;;;;;;7.10;6.10;;;9.10;99.90;;;;;;5052724;28;20486;-47
2021/12/15 12:37:59;;;;;;;5.50;5.03;;;9.20;99.90;;;;;;5067675;28;22386;-50
2021/12/15 12:40:28;;;;;;;5.67;5.17;;;9.20;99.90;;;;;;5058621;28;20487;-47
2021/12/15 12:42:55;;;;;;;6.07;5.57;;;9.20;99.90;;;;;;5061067;28;20486;-47
2021/12/15 12:45:33;;;;;;;5.17;4.63;;;9.20;99.90;;;;;;5054356;28;20923;-47
2021/12/15 12:48:34;;;;;;;3.27;2.97;;;9.10;99.80;;;;;;5056715;28;20887;-47
2021/12/15 12:59:28;;;;;;;5.23;4.47;;;9.20;99.90;;;;;;5062618;28;20536;-47
2021/12/15 13:01:56;;;;;;;5.73;5.23;;;9.30;99.90;;;;;;5067006;28;20483;-47
2021/12/15 13:04:37;;;;;;;5.77;4.80;;;9.30;99.90;;;;;;5069510;28;20973;-47
2021/12/15 13:07:04;;;;;;;4.87;4.37;;;9.30;99.90;;;;;;5065229;28;20483;-47
2021/12/15 13:09:45;;;;;;;3.50;3.13;;;9.40;99.90;;;;;;5061092;28;21334;-47
2021/12/15 13:12:24;;;;;;;5.33;4.83;;;9.40;99.90;;;;;;5067320;28;20483;-47
2021/12/15 13:14:54;;;;;;;11.23;9.90;;;9.40;99.90;;;;;;5070503;28;20468;-47
2021/12/15 13:17:26;;;;;;;4.40;4.00;;;9.40;99.90;;;;;;5071204;28;20478;-47
2021/12/15 13:19:55;;;;;;;5.80;4.57;;;9.40;99.90;;;;;;5037957;28;21029;-47
2021/12/15 13:22:33;;;;;;;5.60;5.10;;;9.40;99.90;;;;;;5071170;28;20472;-47
2021/12/15 13:30:46;;;;;;;6.97;5.87;;;9.50;99.90;;;;;;5060675;28;20488;-47
2021/12/15 13:33:18;;;;;;;9.13;8.33;;;9.50;99.90;;;;;;5070347;28;20568;-47
2021/12/15 13:35:51;;;;;;;6.13;4.10;;;9.50;99.90;;;;;;5068169;28;20981;-47
2021/12/15 13:38:22;;;;;;;3.80;3.50;;;9.50;99.80;;;;;;5059002;28;20479;-47
2021/12/15 13:41:18;;;;;;;5.90;4.70;;;9.50;99.80;;;;;;5063293;28;21083;-47
2021/12/15 13:43:50;;;;;;;5.10;4.60;;;9.50;99.90;;;;;;5069635;28;20939;-47
2021/12/15 13:46:30;;;;;;;6.50;5.53;;;9.50;99.90;;;;;;5071009;28;20487;-47
2021/12/15 13:49:19;;;;;;;10.27;6.93;;;9.50;99.90;;;;;;5072193;28;20470;-48
2021/12/15 13:52:15;;;;;;;5.97;4.30;;;9.60;99.90;;;;;;5065743;28;20599;-47
2021/12/15 13:55:14;;;;;;;4.67;4.20;;;9.60;99.90;;;;;;5053808;28;20483;-47
2021/12/15 13:58:10;;;;;;;7.10;6.40;;;9.60;99.90;;;;;;5068603;28;20491;-48
2021/12/15 14:00:43;;;;;;;4.43;4.03;;;9.60;99.90;;;;;;5063581;28;20683;-47
2021/12/15 14:03:17;;;;;;;8.23;5.23;;;9.70;99.90;;;;;;5038009;28;20872;-47